Elba, Alabama
Current Conditions -  °F | °C
As of 9:56 AM on Wednesday 28 Jan 2015 (Local Time) from KSXS Reporting Station
Clear Clear  
Wind Chill:   Ceiling: Unl
Heat Index:   Visibility: 10mi
Dew Point: -1°   Wind: 5mph
Humidity: 61%   Direction: 40°NE
Pressure: 30.32"   Gusts: NA
Location:  31.41°N, 86.07°W
Report Text: KSXS 281556Z AUTO 04004KT 10SM CLR 06/M01 A3032 RMK AO2 SLP272 T00641007
Loading
Personal Weather Stations






























Interactive Weather Map New forecast layout! Learn more

10-Day Weather Forecast

Advertisements
Track Severe Weather on mobile